This is the latest recevied weather packets stored in our database for station/object Huerbel. If no packets are shown the sender has not sent any weather packets the latest 1 day(s).
| Time | Temp. | Humidity | Pressure | Rain* | Wind** | Luminosity | Snow |
|---|---|---|---|---|---|---|---|
| 1836273905 | 11.11° C | 89% | 1023.4 hPa | 0 mm | 1.79 m/s, 171° | - | - |
| 1778034731 | 8.33° C | 87% | 1009.1 hPa | 0 mm | 0.89 m/s, 182° | - | - |
| 1778032932 | 10.56° C | 82% | 1009.1 hPa | 0 mm | 2.24 m/s, 137° | - | - |
| 1778031131 | 10.56° C | 82% | 1009.2 hPa | 0 mm | 0.45 m/s, 242° | - | - |
| 1778029332 | 10.56° C | 82% | 1009.6 hPa | 0 mm | 1.34 m/s, 242° | - | - |
| 1778027529 | 10.56° C | 82% | 1009.5 hPa | 0 mm | 0.89 m/s, 153° | - | - |
| 1778025729 | 10.56° C | 82% | 1009.8 hPa | 0 mm | 1.34 m/s, 100° | - | - |
| 1778023929 | 10.56° C | 82% | 1010 hPa | 0 mm | 0.89 m/s, 188° | - | - |
| 1778022129 | 10.56° C | 82% | 1010.1 hPa | 0 mm | 3.58 m/s, 173° | - | - |
| 1778020330 | 11.67° C | 81% | 1010.3 hPa | 0 mm | 3.13 m/s, 211° | - | - |
| 1778018529 | 11.67° C | 81% | 1010.4 hPa | 0 mm | 3.13 m/s, 202° | - | - |
| 1778016731 | 11.67° C | 80% | 1010.2 hPa | 1.02 mm | 4.02 m/s, 234° | - | - |
| 1778014935 | 12.22° C | 79% | 1010.1 hPa | 1.02 mm | 2.24 m/s, 240° | - | - |
| 1778013129 | 12.78° C | 79% | 1010.3 hPa | 1.02 mm | 4.47 m/s, 221° | - | - |
| 1778011330 | 13.33° C | 77% | 1010.4 hPa | 1.02 mm | 4.92 m/s, 232° | - | - |
| 1778009529 | 15° C | 71% | 1010.2 hPa | 0.25 mm | 7.6 m/s, 331° | - | - |
| 1778007735 | 15.56° C | 67% | 1009.2 hPa | 0 mm | 6.26 m/s, 224° | - | - |
| 1778005932 | 15.56° C | 65% | 1008.8 hPa | 0 mm | 3.58 m/s, 219° | - | - |
| 1778004131 | 15.56° C | 67% | 1008.4 hPa | 0 mm | 1.79 m/s, 258° | - | - |
| 1778002330 | 16.11° C | 66% | 1008.4 hPa | 0 mm | 3.13 m/s, 315° | - | - |
| 1778000530 | 16.11° C | 66% | 1007.9 hPa | 0 mm | 0.89 m/s, 316° | - | - |
| 1777998731 | 16.67° C | 59% | 1007.8 hPa | 0 mm | 0.89 m/s, 254° | - | - |
| 1777995130 | 16.67° C | 63% | 1008.4 hPa | 0 mm | 3.58 m/s, 336° | - | - |
| 1777993336 | 17.22° C | 64% | 1008.1 hPa | 0 mm | 3.58 m/s, 343° | - | - |
| 1777991532 | 16.67° C | 63% | 1008.4 hPa | 0 mm | 4.92 m/s, 330° | - | - |
* Rain since midnight (hover to see other rain measurements)
** Current wind speed in m/s (hover to see current wind gust speed)